Hunters Run, Pennsylvania
Current Conditions -  °F | °C
As of 2:53 PM on Wednesday 28 Jan 2015 (Local Time) from KTHV Reporting Station
Clear Clear  
Wind Chill: 23°   Ceiling: Unl
Heat Index: 32°   Visibility: 10mi
Dew Point:   Wind: 13mph
Humidity: 29%   Direction: 320°NW
Pressure: 30.19"   Gusts: NA
Location:  40.0362°N, 77.1908°W
Report Text: KTHV 281953Z AUTO 32011KT 10SM CLR 00/M16 A3019 RMK AO2 SLP233 T00001161
Loading
Personal Weather Stations






























Interactive Weather Map New forecast layout! Learn more

10-Day Weather Forecast

Advertisements
Track Severe Weather on mobile